createdAt,value
2018-09-28T00:01:27.162Z,36.9
2018-09-28T00:11:27.352Z,37.3
2018-09-28T00:21:27.265Z,33.9
2018-09-28T00:31:28.004Z,36.2
2018-09-28T00:41:27.038Z,35.9
2018-09-28T00:51:28.060Z,34.5
2018-09-28T01:01:27.482Z,37.6
2018-09-28T01:11:28.218Z,34.8
2018-09-28T01:21:27.215Z,32.0
2018-09-28T01:31:26.965Z,33.0
2018-09-28T01:41:27.327Z,39.7
2018-09-28T01:51:27.709Z,38.5
2018-09-28T02:01:26.864Z,40.0
2018-09-28T02:11:26.599Z,36.7
2018-09-28T02:21:26.825Z,38.2
2018-09-28T02:31:26.869Z,32.2
2018-09-28T02:41:26.549Z,30.8
2018-09-28T02:51:27.148Z,32.3
2018-09-28T03:01:27.834Z,29.5
2018-09-28T03:11:27.163Z,31.6
2018-09-28T03:21:29.489Z,30.6
2018-09-28T03:31:27.890Z,28.8
2018-09-28T03:41:27.066Z,31.2
2018-09-28T03:51:27.573Z,28.0
2018-09-28T04:01:28.241Z,31.0
2018-09-28T04:11:27.745Z,36.0
2018-09-28T04:21:26.904Z,29.1
2018-09-28T04:31:29.343Z,33.3
2018-09-28T04:41:27.693Z,29.3
2018-09-28T04:51:28.879Z,33.8
2018-09-28T05:01:29.331Z,30.1
2018-09-28T05:11:27.219Z,33.8
2018-09-28T05:21:27.631Z,32.3
2018-09-28T05:31:27.961Z,31.8
2018-09-28T05:41:27.795Z,34.9
2018-09-28T05:51:28.363Z,34.5
2018-09-28T06:01:26.368Z,36.5
2018-09-28T06:11:28.999Z,35.7
2018-09-28T06:21:26.911Z,34.5
2018-09-28T06:31:27.282Z,38.7
2018-09-28T06:41:27.638Z,30.6
2018-09-28T06:51:27.962Z,30.7
2018-09-28T07:01:28.626Z,21.3
2018-09-28T07:11:26.533Z,20.5
2018-09-28T07:21:26.548Z,22.8
2018-09-28T07:31:28.162Z,25.0
2018-09-28T07:41:26.984Z,23.6
2018-09-28T07:51:26.929Z,20.0
2018-09-28T08:01:26.781Z,19.4
2018-09-28T08:11:26.780Z,14.0
2018-09-28T08:21:26.829Z,16.0
2018-09-28T08:31:26.821Z,14.3
2018-09-28T08:41:25.673Z,15.3
2018-09-28T08:51:27.377Z,15.4
2018-09-28T09:01:27.699Z,11.0
2018-09-28T09:11:25.756Z,8.6
2018-09-28T09:21:28.414Z,8.1
2018-09-28T09:31:27.209Z,8.6
2018-09-28T09:41:27.930Z,7.6
2018-09-28T09:51:26.690Z,7.5
2018-09-28T10:01:26.743Z,8.7
2018-09-28T10:11:26.936Z,5.6
2018-09-28T10:21:27.747Z,6.9
2018-09-28T10:31:25.965Z,5.8
2018-09-28T10:41:27.010Z,5.5
2018-09-28T10:51:27.815Z,5.8
2018-09-28T11:01:27.379Z,6.4
2018-09-28T11:11:27.108Z,5.9
2018-09-28T11:21:27.094Z,5.4
2018-09-28T11:31:26.374Z,7.1
2018-09-28T11:41:27.850Z,4.7
2018-09-28T11:51:26.556Z,3.9
2018-09-28T12:01:25.970Z,5.6
2018-09-28T12:11:26.101Z,4.0
2018-09-28T12:21:27.021Z,4.7
2018-09-28T12:31:28.009Z,4.0
2018-09-28T12:41:27.479Z,6.1
2018-09-28T12:51:27.182Z,6.8
2018-09-28T13:01:26.143Z,4.4
2018-09-28T13:11:26.676Z,4.3
2018-09-28T13:21:28.013Z,6.5
2018-09-28T13:31:27.307Z,3.4
2018-09-28T13:41:26.502Z,5.7
2018-09-28T13:51:28.698Z,4.4
2018-09-28T14:01:31.103Z,9.5
2018-09-28T14:11:26.272Z,4.0
2018-09-28T14:21:26.485Z,4.7
2018-09-28T14:31:26.397Z,5.3
2018-09-28T14:41:26.938Z,4.3
2018-09-28T14:51:26.411Z,9.4
2018-09-28T15:01:29.425Z,7.2
2018-09-28T15:11:26.319Z,5.9
2018-09-28T15:21:26.778Z,12.5
2018-09-28T15:31:25.695Z,12.3
2018-09-28T15:41:26.415Z,12.3
2018-09-28T15:51:27.050Z,8.5
2018-09-28T16:01:27.627Z,9.3
2018-09-28T16:11:26.076Z,7.6
2018-09-28T16:21:26.559Z,11.1
2018-09-28T16:31:26.514Z,10.6
2018-09-28T16:41:27.307Z,10.7
2018-09-28T16:51:26.207Z,13.2
2018-09-28T17:01:28.069Z,8.6
2018-09-28T17:11:27.024Z,8.4
2018-09-28T17:21:47.407Z,9.8
2018-09-28T17:31:28.012Z,10.2
2018-09-28T17:41:27.431Z,8.6
2018-09-28T17:51:26.594Z,8.7
2018-09-28T18:01:26.670Z,16.0
2018-09-28T18:11:26.595Z,8.6
2018-09-28T18:21:27.883Z,7.3
2018-09-28T18:31:26.969Z,4.6
2018-09-28T18:41:26.928Z,4.3
2018-09-28T18:51:27.472Z,5.2
2018-09-28T19:01:25.960Z,5.4
2018-09-28T19:11:27.260Z,5.8
2018-09-28T19:21:28.729Z,7.6
2018-09-28T19:31:27.578Z,8.2
2018-09-28T19:41:27.578Z,9.7
2018-09-28T19:51:26.746Z,7.6
2018-09-28T20:01:26.505Z,7.2
2018-09-28T20:11:26.543Z,8.4
2018-09-28T20:21:29.199Z,7.9
2018-09-28T20:31:27.621Z,7.4
2018-09-28T20:41:27.712Z,8.6
2018-09-28T20:51:26.616Z,6.6
2018-09-28T21:01:26.652Z,10.7
2018-09-28T21:11:28.573Z,6.6
2018-09-28T21:21:28.252Z,8.6
2018-09-28T21:31:27.835Z,8.8
2018-09-28T21:41:26.486Z,6.6
2018-09-28T21:51:26.607Z,7.4
2018-09-28T22:01:27.467Z,9.6
2018-09-28T22:11:28.529Z,7.1
2018-09-28T22:21:27.174Z,5.8
2018-09-28T22:31:28.519Z,4.9
2018-09-28T22:41:28.802Z,5.3
2018-09-28T22:51:27.939Z,6.2
2018-09-28T23:01:26.775Z,5.8
2018-09-28T23:11:27.603Z,6.3
2018-09-28T23:21:26.700Z,2.7
2018-09-28T23:31:26.758Z,8.2
2018-09-28T23:41:27.650Z,8.4
2018-09-28T23:51:27.562Z,5.5
